createdAt,value
2023-03-08T00:04:19.568Z,98.54
2023-03-08T00:09:22.162Z,97.89
2023-03-08T00:14:24.779Z,98.40
2023-03-08T00:19:27.239Z,98.29
2023-03-08T00:24:29.896Z,98.07
2023-03-08T00:29:32.577Z,98.50
2023-03-08T00:34:35.133Z,98.00
2023-03-08T00:39:37.671Z,98.13
2023-03-08T00:44:41.329Z,98.20
2023-03-08T00:49:44.853Z,98.20
2023-03-08T00:54:47.401Z,98.34
2023-03-08T00:59:50.004Z,98.92
2023-03-08T01:04:52.704Z,98.97
2023-03-08T01:09:57.264Z,99.02
2023-03-08T01:15:00.135Z,99.10
2023-03-08T01:20:03.315Z,98.07
2023-03-08T01:25:06.536Z,98.04
2023-03-08T01:30:09.976Z,98.08
2023-03-08T01:35:12.508Z,97.99
2023-03-08T01:40:16.569Z,97.48
2023-03-08T01:46:12.977Z,97.56
2023-03-08T01:51:22.974Z,97.43
2023-03-08T01:56:46.826Z,96.81
2023-03-08T02:01:49.795Z,96.72
2023-03-08T02:06:52.940Z,97.10
2023-03-08T02:12:04.097Z,96.63
2023-03-08T02:17:07.517Z,96.28
2023-03-08T02:22:15.451Z,96.20
2023-03-08T02:27:22.187Z,96.01
2023-03-08T02:32:25.030Z,96.00
2023-03-08T02:37:28.802Z,95.86
2023-03-08T02:42:31.319Z,95.73
2023-03-08T02:47:34.138Z,95.87
2023-03-08T02:52:36.801Z,95.86
2023-03-08T02:57:39.275Z,95.79
2023-03-08T03:02:42.602Z,95.73
2023-03-08T03:07:45.500Z,95.57
2023-03-08T03:12:53.337Z,95.57
2023-03-08T03:18:01.673Z,95.75
2023-03-08T03:23:04.343Z,95.65
2023-03-08T03:28:16.864Z,95.04
2023-03-08T03:33:20.547Z,95.64
2023-03-08T03:38:23.655Z,95.18
2023-03-08T03:43:26.214Z,94.75
2023-03-08T03:48:29.244Z,94.70
2023-03-08T03:53:33.561Z,94.77
2023-03-08T03:58:38.048Z,94.72
2023-03-08T04:03:41.402Z,94.25
2023-03-08T04:08:45.148Z,94.42
2023-03-08T04:13:54.133Z,94.40
2023-03-08T04:19:08.139Z,94.22
2023-03-08T04:24:10.921Z,93.84
2023-03-08T04:29:13.693Z,94.40
2023-03-08T04:34:16.493Z,94.12
2023-03-08T04:39:23.045Z,94.13
2023-03-08T04:44:25.940Z,94.14
2023-03-08T04:49:29.196Z,94.19
2023-03-08T04:54:36.342Z,94.76
2023-03-08T04:59:45.496Z,94.57
2023-03-08T05:04:50.331Z,94.51
2023-03-08T05:09:53.022Z,94.48
2023-03-08T05:14:55.719Z,94.48
2023-03-08T05:20:00.945Z,94.45
2023-03-08T05:25:10.946Z,93.89
2023-03-08T05:30:15.143Z,94.70
2023-03-08T05:35:17.972Z,94.40
2023-03-08T05:40:21.963Z,94.62
2023-03-08T05:45:26.257Z,94.30
2023-03-08T05:50:29.848Z,93.68
2023-03-08T05:55:32.527Z,93.76
2023-03-08T06:00:35.342Z,93.60
2023-03-08T06:05:38.525Z,93.87
2023-03-08T06:10:41.336Z,93.33
2023-03-08T06:15:44.527Z,92.29
2023-03-08T06:21:27.465Z,92.83
2023-03-08T06:26:35.899Z,92.95
2023-03-08T06:31:39.111Z,92.47
2023-03-08T06:36:43.565Z,91.52
2023-03-08T06:41:46.334Z,92.50
2023-03-08T06:46:50.027Z,91.47
2023-03-08T06:51:52.608Z,91.18
2023-03-08T06:56:55.328Z,90.80
2023-03-08T07:01:58.566Z,90.99
2023-03-08T07:07:01.128Z,90.50
2023-03-08T07:12:03.939Z,89.99
2023-03-08T07:17:06.508Z,90.44
2023-03-08T07:22:09.071Z,89.22
2023-03-08T07:27:12.637Z,88.09
2023-03-08T07:32:15.506Z,87.71
2023-03-08T07:37:18.114Z,86.59
2023-03-08T07:42:20.777Z,87.38
2023-03-08T07:47:29.452Z,86.19
2023-03-08T07:52:32.120Z,86.53
2023-03-08T07:57:34.779Z,86.90
2023-03-08T08:02:37.607Z,85.92
2023-03-08T08:07:40.406Z,84.58
2023-03-08T08:12:42.941Z,84.73
2023-03-08T08:17:45.470Z,84.95
2023-03-08T08:22:49.951Z,84.45
2023-03-08T08:27:52.853Z,83.31
2023-03-08T08:32:55.348Z,85.07
2023-03-08T08:37:58.235Z,85.58
2023-03-08T08:43:00.746Z,85.45
2023-03-08T08:48:12.435Z,85.38
2023-03-08T08:53:15.431Z,84.81
2023-03-08T08:58:18.280Z,83.71
2023-03-08T09:03:20.882Z,82.88
2023-03-08T09:08:23.371Z,81.02
2023-03-08T09:13:25.886Z,82.88
2023-03-08T09:18:30.650Z,81.09
2023-03-08T09:23:33.512Z,80.50
2023-03-08T09:28:36.145Z,79.98
2023-03-08T09:33:49.224Z,79.23
2023-03-08T09:38:54.133Z,79.02
2023-03-08T09:44:11.848Z,78.67
2023-03-08T09:49:18.976Z,79.04
2023-03-08T09:54:24.790Z,77.88
2023-03-08T09:59:35.228Z,77.39
2023-03-08T10:05:12.779Z,77.06
2023-03-08T10:10:40.990Z,77.69
2023-03-08T10:15:50.113Z,77.17
2023-03-08T10:20:53.498Z,77.56
2023-03-08T10:25:56.049Z,77.64
2023-03-08T10:31:01.927Z,78.05
2023-03-08T10:36:17.321Z,76.68
2023-03-08T10:41:19.903Z,76.53
2023-03-08T10:46:25.521Z,77.22
2023-03-08T10:51:29.502Z,76.87
2023-03-08T10:56:46.743Z,77.32
2023-03-08T11:01:52.735Z,76.87
2023-03-08T11:06:55.793Z,76.09
2023-03-08T11:12:00.293Z,76.18
2023-03-08T11:17:28.188Z,75.79
2023-03-08T11:22:30.781Z,76.47
2023-03-08T11:27:51.689Z,74.99
2023-03-08T11:33:22.552Z,75.98
2023-03-08T11:38:27.735Z,75.95
2023-03-08T11:43:49.010Z,76.21
2023-03-08T11:49:22.355Z,77.27
2023-03-08T11:54:37.604Z,75.92
2023-03-08T11:59:46.091Z,75.39
2023-03-08T12:04:55.910Z,77.66
2023-03-08T12:10:11.523Z,77.60
2023-03-08T12:15:40.014Z,77.19
2023-03-08T12:20:44.848Z,78.44
2023-03-08T12:25:51.821Z,79.18
2023-03-08T12:30:54.540Z,79.03
2023-03-08T12:36:00.344Z,79.97
2023-03-08T12:41:06.096Z,79.49
2023-03-08T12:46:11.242Z,81.44
2023-03-08T12:51:14.297Z,81.84
2023-03-08T12:56:31.321Z,82.18
2023-03-08T13:01:35.771Z,82.04
2023-03-08T13:06:54.196Z,83.29
2023-03-08T13:12:29.390Z,83.76
2023-03-08T13:17:35.629Z,85.44
2023-03-08T13:22:54.405Z,85.36
2023-03-08T13:28:12.418Z,86.72
2023-03-08T13:33:22.233Z,86.91
2023-03-08T13:38:38.477Z,87.39
2023-03-08T13:43:40.989Z,87.59
2023-03-08T13:48:45.030Z,88.58
2023-03-08T13:53:47.886Z,88.97
2023-03-08T13:58:52.460Z,89.35
2023-03-08T14:03:58.553Z,89.97
2023-03-08T14:09:03.733Z,89.56
2023-03-08T14:14:15.520Z,89.62
2023-03-08T14:19:29.547Z,90.20
2023-03-08T14:24:34.986Z,90.48
2023-03-08T14:29:37.712Z,91.21
2023-03-08T14:34:45.302Z,91.88
2023-03-08T14:39:50.121Z,92.64
2023-03-08T14:44:57.927Z,92.44
2023-03-08T14:50:08.323Z,93.20
2023-03-08T14:55:24.318Z,93.70
2023-03-08T15:00:29.166Z,94.73
2023-03-08T15:05:33.341Z,95.00
2023-03-08T15:10:38.510Z,94.68
2023-03-08T15:15:41.273Z,95.84
2023-03-08T15:20:46.588Z,96.49
2023-03-08T15:25:49.403Z,96.70
2023-03-08T15:30:54.851Z,97.59
2023-03-08T15:35:58.663Z,98.15
2023-03-08T15:41:01.783Z,98.82
2023-03-08T15:46:05.392Z,98.98
2023-03-08T16:18:51.617Z,99.42
2023-03-08T16:23:54.300Z,100.00
2023-03-08T16:28:56.843Z,100.00
2023-03-08T16:34:03.602Z,100.00
2023-03-08T16:39:07.464Z,100.00
2023-03-08T16:44:28.488Z,100.00
2023-03-08T16:49:31.150Z,100.00
2023-03-08T16:54:33.748Z,100.00
2023-03-08T16:59:36.268Z,100.00
2023-03-08T17:04:38.890Z,100.00
2023-03-08T17:09:41.465Z,100.00
2023-03-08T17:14:44.840Z,100.00
2023-03-08T17:19:51.856Z,100.00
2023-03-08T17:24:54.443Z,100.00
2023-03-08T17:29:58.549Z,100.00
2023-03-08T17:35:01.165Z,100.00
2023-03-08T17:40:04.016Z,100.00
2023-03-08T17:45:07.532Z,100.00
2023-03-08T17:50:15.187Z,100.00
2023-03-08T17:55:17.832Z,100.00
2023-03-08T18:00:21.223Z,100.00
2023-03-08T18:05:23.916Z,100.00
2023-03-08T18:10:26.564Z,100.00
2023-03-08T18:15:29.120Z,100.00
2023-03-08T18:20:31.975Z,100.00
2023-03-08T18:25:35.602Z,100.00
2023-03-08T18:30:38.741Z,100.00
2023-03-08T18:35:41.322Z,100.00
2023-03-08T18:40:44.046Z,100.00
2023-03-08T18:45:54.368Z,100.00
2023-03-08T18:51:01.093Z,100.00
2023-03-08T18:56:05.002Z,100.00
2023-03-08T19:01:13.398Z,100.00
2023-03-08T19:06:16.171Z,100.00
2023-03-08T19:11:21.710Z,100.00
2023-03-08T19:16:26.204Z,100.00
2023-03-08T19:21:44.923Z,100.00
2023-03-08T19:26:51.263Z,100.00
2023-03-08T19:31:57.017Z,100.00
2023-03-08T19:37:00.687Z,100.00
2023-03-08T19:42:06.547Z,100.00
2023-03-08T19:47:09.627Z,100.00
2023-03-08T19:52:14.162Z,100.00
2023-03-08T19:57:16.961Z,100.00
2023-03-08T20:02:19.647Z,100.00
2023-03-08T20:07:22.309Z,100.00
2023-03-08T20:12:25.043Z,100.00
2023-03-08T20:17:28.406Z,100.00
2023-03-08T20:22:30.977Z,100.00
2023-03-08T20:27:33.847Z,100.00
2023-03-08T20:32:36.574Z,100.00
2023-03-08T20:37:39.338Z,100.00
2023-03-08T20:42:41.957Z,97.49
2023-03-08T20:47:44.632Z,99.96
2023-03-08T20:52:48.517Z,98.84
2023-03-08T20:57:53.039Z,95.86
2023-03-08T21:02:56.015Z,93.92
2023-03-08T21:07:58.669Z,96.15
2023-03-08T21:13:01.338Z,96.98
2023-03-08T21:18:03.972Z,97.80
2023-03-08T21:23:06.613Z,95.82
2023-03-08T21:28:09.368Z,95.46
2023-03-08T21:33:12.000Z,94.67
2023-03-08T21:38:15.011Z,94.85
2023-03-08T21:43:17.748Z,95.63
2023-03-08T21:48:20.485Z,95.20
2023-03-08T21:53:23.121Z,95.04
2023-03-08T21:58:25.868Z,94.39
2023-03-08T22:03:30.878Z,94.34
2023-03-08T22:08:33.532Z,94.33
2023-03-08T22:13:36.679Z,94.88
2023-03-08T22:18:39.324Z,94.84
2023-03-08T22:23:41.952Z,95.56
2023-03-08T22:28:44.717Z,95.49
2023-03-08T22:33:47.580Z,95.09
2023-03-08T22:38:50.510Z,95.43
2023-03-08T22:43:53.204Z,95.04
2023-03-08T22:48:59.253Z,95.91
2023-03-08T22:54:04.182Z,94.63
2023-03-08T22:59:06.893Z,94.91
2023-03-08T23:04:12.263Z,95.51
2023-03-08T23:09:16.171Z,96.58
2023-03-08T23:14:18.859Z,96.37
2023-03-08T23:19:22.096Z,96.58
2023-03-08T23:24:24.698Z,96.17
2023-03-08T23:29:27.711Z,95.18
2023-03-08T23:34:30.402Z,95.98
2023-03-08T23:39:34.161Z,95.98
2023-03-08T23:44:38.113Z,96.25
2023-03-08T23:49:40.816Z,95.84
2023-03-08T23:54:43.374Z,95.76
2023-03-08T23:59:46.089Z,95.69
